Time;durP1;ratioP1;P1;durP2;ratioP2;P2;SDS_P1;SDS_P2;PMS_P1;PMS_P2;Temp;Humidity;BMP_temperature;BMP_pressure;BME280_temperature;BME280_humidity;BME280_pressure;Samples;Min_cycle;Max_cycle;Signal;HPM_P1;HPM_P2
2023/01/30 00:01:41;;;;;;;3.23;1.23;;;24.50;40.00;;;;;;5038145;27;83777;-51
2023/01/30 00:04:12;;;;;;;0.83;0.80;;;24.50;40.00;;;;;;5037428;28;83511;-51
2023/01/30 00:06:43;;;;;;;1.97;1.00;;;24.40;40.00;;;;;;5031490;27;82985;-50
2023/01/30 00:09:13;;;;;;;4.30;1.10;;;24.40;40.10;;;;;;5037706;27;84149;-50
2023/01/30 00:11:41;;;;;;;0.60;0.60;;;24.30;40.00;;;;;;5038053;28;82844;-52
2023/01/30 00:14:09;;;;;;;1.03;1.00;;;24.30;40.00;;;;;;5045330;27;82272;-52
2023/01/30 00:16:37;;;;;;;3.33;1.10;;;24.20;40.00;;;;;;5026507;28;83346;-52
2023/01/30 00:19:05;;;;;;;1.63;1.10;;;24.20;40.00;;;;;;5031126;27;83602;-53
2023/01/30 00:21:35;;;;;;;1.23;1.13;;;24.10;39.90;;;;;;5023138;28;83932;-52
2023/01/30 00:24:03;;;;;;;2.43;0.97;;;24.10;40.00;;;;;;5026252;28;81908;-53
2023/01/30 00:26:31;;;;;;;0.70;0.70;;;24.10;40.00;;;;;;5029716;28;87019;-52
2023/01/30 00:29:00;;;;;;;0.80;0.80;;;24.00;39.90;;;;;;5023452;28;83960;-52
2023/01/30 00:31:28;;;;;;;2.00;0.70;;;24.00;40.00;;;;;;5025518;28;83552;-52
2023/01/30 00:33:56;;;;;;;1.23;0.77;;;23.90;39.90;;;;;;5026334;28;81891;-52
2023/01/30 00:36:24;;;;;;;0.83;0.83;;;23.90;39.90;;;;;;5026857;28;83952;-52
2023/01/30 00:38:53;;;;;;;1.07;0.97;;;23.80;39.80;;;;;;5026166;28;82896;-52
2023/01/30 00:41:21;;;;;;;0.87;0.80;;;23.80;39.80;;;;;;5027115;28;84277;-53
2023/01/30 00:49:20;;;;;;;0.80;0.80;;;23.70;39.80;;;;;;5020975;28;84079;-52
2023/01/30 00:51:48;;;;;;;0.93;0.80;;;23.70;39.80;;;;;;5023667;28;82732;-52
2023/01/30 00:54:17;;;;;;;1.60;0.90;;;23.60;39.80;;;;;;5023940;27;84162;-52
2023/01/30 00:56:45;;;;;;;0.93;0.80;;;23.60;39.80;;;;;;5023956;28;82250;-52
2023/01/30 00:59:13;;;;;;;1.97;1.10;;;23.50;39.70;;;;;;5022285;28;83207;-52
2023/01/30 01:01:41;;;;;;;1.00;1.00;;;23.50;39.80;;;;;;5031449;28;83659;-52
2023/01/30 01:04:10;;;;;;;1.30;0.97;;;23.50;39.80;;;;;;5030311;28;82005;-52
2023/01/30 01:06:38;;;;;;;3.23;1.23;;;23.50;39.80;;;;;;5038226;28;83876;-52
2023/01/30 01:09:06;;;;;;;1.03;0.90;;;23.50;40.50;;;;;;5031925;28;84082;-52
2023/01/30 01:11:36;;;;;;;0.80;0.80;;;23.50;39.80;;;;;;5039539;27;83994;-51
2023/01/30 01:14:04;;;;;;;0.87;0.87;;;23.40;39.80;;;;;;5024216;28;81895;-52
2023/01/30 01:16:32;;;;;;;2.30;0.90;;;23.40;39.80;;;;;;5026837;28;82721;-53
2023/01/30 01:19:00;;;;;;;0.93;0.63;;;23.40;39.80;;;;;;5031537;27;85004;-53
2023/01/30 01:21:28;;;;;;;1.43;1.10;;;23.30;39.70;;;;;;5028529;27;84763;-52
2023/01/30 01:23:59;;;;;;;1.97;0.90;;;23.30;39.80;;;;;;5041915;27;82534;-53
2023/01/30 01:26:27;;;;;;;2.87;1.30;;;23.30;39.80;;;;;;5031021;27;82733;-53
2023/01/30 01:28:56;;;;;;;0.63;0.63;;;23.30;39.80;;;;;;5032951;27;82866;-52
2023/01/30 01:31:24;;;;;;;0.73;0.63;;;23.30;39.80;;;;;;5022244;28;83913;-52
2023/01/30 01:33:53;;;;;;;0.73;0.73;;;23.30;39.90;;;;;;5021925;28;82592;-52
2023/01/30 01:36:21;;;;;;;1.70;1.07;;;23.30;39.90;;;;;;5020196;28;83929;-52
2023/01/30 01:39:08;;;;;;;1.17;0.73;;;23.20;39.80;;;;;;5022365;28;81916;-52
2023/01/30 01:41:36;;;;;;;1.03;0.80;;;23.20;39.80;;;;;;5040229;28;81981;-52
2023/01/30 01:44:06;;;;;;;1.07;0.53;;;23.20;39.80;;;;;;5023169;28;82986;-50
2023/01/30 01:46:35;;;;;;;0.50;0.50;;;23.20;39.90;;;;;;5023828;28;82820;-52
2023/01/30 01:49:05;;;;;;;0.70;0.70;;;23.10;39.80;;;;;;5038284;27;82977;-52
2023/01/30 01:51:34;;;;;;;1.47;1.03;;;23.20;40.00;;;;;;5043181;28;82606;-52
2023/01/30 01:54:05;;;;;;;0.80;0.80;;;23.10;39.90;;;;;;5007145;28;81988;-52
2023/01/30 01:56:33;;;;;;;2.23;0.90;;;23.20;40.00;;;;;;5036839;28;83659;-52
2023/01/30 01:59:02;;;;;;;0.80;0.80;;;23.10;39.90;;;;;;5033599;28;84092;-52
2023/01/30 02:01:32;;;;;;;1.50;1.03;;;23.10;39.90;;;;;;5044172;27;84095;-52
2023/01/30 02:04:02;;;;;;;1.50;0.70;;;23.10;39.90;;;;;;5039582;27;82103;-52
2023/01/30 02:06:30;;;;;;;3.20;1.50;;;23.00;39.90;;;;;;5028602;27;83595;-53
2023/01/30 02:08:59;;;;;;;0.80;0.60;;;23.00;39.90;;;;;;5026998;28;82938;-52
2023/01/30 02:11:31;;;;;;;0.70;0.70;;;23.00;39.90;;;;;;5033947;28;84836;-52
2023/01/30 02:13:59;;;;;;;1.30;0.90;;;23.00;40.00;;;;;;5030750;28;81956;-52
2023/01/30 02:16:27;;;;;;;1.03;0.80;;;23.00;40.00;;;;;;5022709;28;83853;-52
2023/01/30 02:18:56;;;;;;;1.23;0.93;;;23.00;40.00;;;;;;5028288;28;83099;-52
2023/01/30 02:21:54;;;;;;;4.83;1.30;;;23.00;40.00;;;;;;5023045;28;83715;-52
2023/01/30 02:24:41;;;;;;;2.40;0.83;;;23.00;40.10;;;;;;5022780;28;82024;-52
2023/01/30 02:27:33;;;;;;;0.70;0.70;;;22.90;40.60;;;;;;5024208;28;82896;-52
2023/01/30 02:30:22;;;;;;;2.33;0.90;;;22.90;40.00;;;;;;5020450;28;82984;-52
2023/01/30 02:32:57;;;;;;;1.00;0.70;;;22.90;40.00;;;;;;5027714;28;82121;-52
2023/01/30 02:35:28;;;;;;;0.70;0.70;;;22.80;40.00;;;;;;5037244;27;83002;-52
2023/01/30 02:38:03;;;;;;;0.80;0.70;;;22.90;40.00;;;;;;5028454;28;81997;-52
2023/01/30 02:40:39;;;;;;;1.83;0.80;;;22.80;40.00;;;;;;5019978;28;81952;-53
2023/01/30 02:43:12;;;;;;;2.00;0.90;;;22.80;40.00;;;;;;5028422;28;82761;-52
2023/01/30 02:45:42;;;;;;;0.83;0.77;;;22.80;40.00;;;;;;5023589;27;82057;-52
2023/01/30 02:48:13;;;;;;;0.67;0.67;;;22.80;40.00;;;;;;5023887;28;83294;-52
2023/01/30 02:50:43;;;;;;;0.87;0.80;;;22.80;40.00;;;;;;5034624;28;85407;-52
2023/01/30 02:53:11;;;;;;;0.43;0.43;;;22.80;40.10;;;;;;5037316;28;86259;-52
2023/01/30 02:55:40;;;;;;;0.60;0.60;;;22.70;40.00;;;;;;5036488;28;81927;-52
2023/01/30 02:58:08;;;;;;;1.53;0.60;;;22.80;40.10;;;;;;5034423;27;82815;-52
2023/01/30 03:00:52;;;;;;;1.80;1.10;;;22.70;40.00;;;;;;5022005;28;83900;-52
2023/01/30 03:03:38;;;;;;;1.60;0.87;;;22.70;40.00;;;;;;5036446;27;84815;-52
2023/01/30 03:06:17;;;;;;;0.50;0.50;;;22.70;40.00;;;;;;5022523;28;82018;-52
2023/01/30 03:08:52;;;;;;;1.80;0.70;;;22.70;40.00;;;;;;5027415;28;82673;-51
2023/01/30 03:11:23;;;;;;;0.43;0.40;;;22.70;40.10;;;;;;5015161;28;84052;-51
2023/01/30 03:13:54;;;;;;;0.70;0.70;;;22.70;40.10;;;;;;5023368;28;83418;-51
2023/01/30 03:16:24;;;;;;;2.20;0.80;;;22.70;40.10;;;;;;5024245;28;82269;-51
2023/01/30 03:18:54;;;;;;;0.83;0.50;;;22.70;40.10;;;;;;5032891;28;83907;-51
2023/01/30 03:21:21;;;;;;;1.57;1.00;;;22.60;40.10;;;;;;5003025;28;83687;-52
2023/01/30 03:23:49;;;;;;;0.70;0.50;;;22.60;40.10;;;;;;5012555;28;82769;-52
2023/01/30 03:26:19;;;;;;;1.90;0.67;;;22.60;40.10;;;;;;5022064;28;82869;-51
2023/01/30 03:28:47;;;;;;;0.93;0.50;;;22.60;40.10;;;;;;5028196;28;83077;-51
2023/01/30 03:31:15;;;;;;;1.00;0.57;;;22.60;40.10;;;;;;5035600;28;83031;-51
2023/01/30 03:33:43;;;;;;;0.60;0.60;;;22.60;40.10;;;;;;5021589;28;82009;-52
2023/01/30 03:36:13;;;;;;;0.53;0.50;;;22.60;40.10;;;;;;5025752;28;81921;-51
2023/01/30 03:38:41;;;;;;;0.87;0.53;;;22.50;40.00;;;;;;5040208;27;82956;-51
2023/01/30 03:41:09;;;;;;;0.50;0.50;;;22.50;40.00;;;;;;5025581;28;84148;-51
2023/01/30 03:43:37;;;;;;;0.57;0.50;;;22.50;40.00;;;;;;5013017;28;83832;-51
2023/01/30 03:46:05;;;;;;;1.53;0.50;;;22.50;40.70;;;;;;5033359;27;82128;-51
2023/01/30 03:48:33;;;;;;;1.80;0.60;;;22.50;40.10;;;;;;5028489;27;82763;-51
2023/01/30 03:51:01;;;;;;;0.97;0.70;;;22.50;40.10;;;;;;5044668;27;84197;-51
2023/01/30 03:53:30;;;;;;;1.07;0.60;;;22.50;40.10;;;;;;5043343;28;84843;-51
2023/01/30 03:55:58;;;;;;;0.47;0.47;;;22.50;40.10;;;;;;5045448;27;82023;-51
2023/01/30 03:58:26;;;;;;;1.57;0.63;;;22.50;40.10;;;;;;5036377;28;83891;-52
2023/01/30 04:00:56;;;;;;;1.43;0.40;;;22.40;40.10;;;;;;5027095;28;82038;-52
2023/01/30 04:03:24;;;;;;;2.33;0.50;;;22.40;40.10;;;;;;5036345;28;82968;-52
2023/01/30 04:05:52;;;;;;;1.30;0.63;;;22.40;40.10;;;;;;5036433;27;82488;-52
2023/01/30 04:08:20;;;;;;;2.73;1.03;;;22.40;40.10;;;;;;5027563;28;82801;-52
2023/01/30 04:10:49;;;;;;;0.60;0.60;;;22.40;40.80;;;;;;5024211;28;83234;-52
2023/01/30 04:13:17;;;;;;;0.50;0.50;;;22.40;40.20;;;;;;5036921;28;82654;-52
2023/01/30 04:15:45;;;;;;;0.50;0.50;;;22.40;40.20;;;;;;5037032;28;82885;-51
2023/01/30 04:18:13;;;;;;;0.63;0.40;;;22.40;40.20;;;;;;5031828;28;83600;-51
2023/01/30 04:20:41;;;;;;;0.50;0.50;;;22.30;40.10;;;;;;5023822;28;83179;-52
2023/01/30 04:23:09;;;;;;;0.47;0.47;;;22.30;40.10;;;;;;5023085;28;82883;-51
2023/01/30 04:25:37;;;;;;;0.63;0.43;;;22.30;40.10;;;;;;5024170;28;82142;-51
2023/01/30 04:28:06;;;;;;;0.97;0.80;;;22.30;40.10;;;;;;5027334;28;83400;-51
2023/01/30 04:30:34;;;;;;;0.70;0.70;;;22.30;40.20;;;;;;5024831;28;83918;-51
2023/01/30 04:33:02;;;;;;;0.57;0.50;;;22.30;40.20;;;;;;5030366;28;83826;-51
2023/01/30 04:35:30;;;;;;;0.30;0.30;;;22.30;40.20;;;;;;5024815;28;82043;-51
2023/01/30 04:37:58;;;;;;;0.73;0.57;;;22.20;40.10;;;;;;5024821;28;82944;-51
2023/01/30 04:40:27;;;;;;;1.97;0.40;;;22.20;40.80;;;;;;5023485;28;85046;-51
2023/01/30 04:42:55;;;;;;;0.40;0.40;;;22.20;40.20;;;;;;5025691;28;82970;-52
2023/01/30 04:45:25;;;;;;;1.10;0.67;;;22.20;40.20;;;;;;5026528;28;82124;-51
2023/01/30 04:47:53;;;;;;;1.50;0.50;;;22.20;40.20;;;;;;5038232;27;82894;-51
2023/01/30 04:50:21;;;;;;;0.60;0.50;;;22.20;40.20;;;;;;5021331;28;83919;-51
2023/01/30 04:52:49;;;;;;;1.57;0.53;;;22.20;40.20;;;;;;5016987;28;83881;-51
2023/01/30 04:55:17;;;;;;;0.50;0.50;;;22.20;40.20;;;;;;5017876;28;83384;-51
2023/01/30 04:57:46;;;;;;;1.23;0.50;;;22.20;40.20;;;;;;5021792;28;84304;-51
2023/01/30 05:00:14;;;;;;;0.67;0.53;;;22.20;40.20;;;;;;5030386;27;83747;-51
2023/01/30 05:02:43;;;;;;;0.83;0.60;;;22.20;40.30;;;;;;5026331;27;82917;-52
2023/01/30 05:05:11;;;;;;;0.53;0.53;;;22.10;40.10;;;;;;5022637;28;82979;-51
2023/01/30 05:07:39;;;;;;;2.07;0.50;;;22.10;40.10;;;;;;5037961;27;82920;-51
2023/01/30 05:10:08;;;;;;;1.90;0.70;;;22.10;40.20;;;;;;5025560;28;84118;-51
2023/01/30 05:12:36;;;;;;;0.67;0.67;;;22.10;40.20;;;;;;5022424;28;83670;-51
2023/01/30 05:15:05;;;;;;;0.70;0.70;;;22.10;40.20;;;;;;5029945;28;81954;-51
2023/01/30 05:17:34;;;;;;;0.97;0.70;;;22.10;40.20;;;;;;5033314;28;82191;-51
2023/01/30 05:20:03;;;;;;;1.07;0.60;;;22.10;40.20;;;;;;5021040;27;83171;-51
2023/01/30 05:22:31;;;;;;;0.50;0.50;;;22.10;40.80;;;;;;5022895;28;82107;-51
2023/01/30 05:24:59;;;;;;;0.50;0.50;;;22.10;40.20;;;;;;5027101;28;82397;-51
2023/01/30 05:27:27;;;;;;;1.33;0.80;;;22.00;40.20;;;;;;5023399;28;83317;-51
2023/01/30 05:29:55;;;;;;;1.23;0.80;;;22.00;40.20;;;;;;5022778;28;83051;-51
2023/01/30 05:32:24;;;;;;;1.30;0.60;;;22.00;40.20;;;;;;5023098;28;84471;-52
2023/01/30 05:34:52;;;;;;;0.80;0.70;;;22.00;40.40;;;;;;5035658;28;82043;-51
2023/01/30 05:37:23;;;;;;;0.80;0.57;;;22.20;40.30;;;;;;5023881;28;82930;-51
2023/01/30 05:39:51;;;;;;;0.77;0.77;;;22.20;40.20;;;;;;5023520;28;84383;-50
2023/01/30 05:42:19;;;;;;;1.00;0.50;;;22.30;40.30;;;;;;5022834;28;82824;-51
2023/01/30 05:44:47;;;;;;;0.50;0.50;;;22.20;40.40;;;;;;5023756;28;82799;-51
2023/01/30 05:47:15;;;;;;;0.40;0.40;;;22.20;40.30;;;;;;5024041;28;84013;-51
2023/01/30 05:49:43;;;;;;;0.67;0.67;;;22.20;40.40;;;;;;5023341;28;84059;-49
2023/01/30 05:52:11;;;;;;;1.00;0.63;;;22.20;41.20;;;;;;5022918;28;82766;-49
2023/01/30 05:54:40;;;;;;;0.93;0.70;;;22.10;40.50;;;;;;5023082;28;83809;-49
2023/01/30 05:57:08;;;;;;;0.50;0.50;;;22.10;40.60;;;;;;5023113;28;84060;-49
2023/01/30 05:59:36;;;;;;;0.43;0.43;;;22.10;41.30;;;;;;5031560;28;83070;-51
2023/01/30 06:02:04;;;;;;;0.93;0.77;;;22.10;41.40;;;;;;5024109;28;82963;-50
2023/01/30 06:04:32;;;;;;;0.90;0.73;;;22.00;40.70;;;;;;5023536;28;81849;-50
2023/01/30 06:07:00;;;;;;;0.60;0.40;;;22.00;40.80;;;;;;5023416;28;82661;-50
2023/01/30 06:09:28;;;;;;;0.60;0.60;;;22.00;40.80;;;;;;5023455;28;83110;-50
2023/01/30 06:11:58;;;;;;;0.80;0.60;;;22.00;40.80;;;;;;5023768;28;83964;-49
2023/01/30 06:14:26;;;;;;;1.23;0.50;;;22.00;40.80;;;;;;5023289;28;83013;-50
2023/01/30 06:16:54;;;;;;;0.70;0.70;;;22.00;40.90;;;;;;5023281;28;81989;-49
2023/01/30 06:19:22;;;;;;;1.17;0.50;;;22.00;40.90;;;;;;5022766;28;84151;-50
2023/01/30 06:21:50;;;;;;;0.73;0.73;;;21.90;40.90;;;;;;5023383;28;84809;-50
2023/01/30 06:24:18;;;;;;;0.80;0.67;;;21.90;40.90;;;;;;5022868;28;82027;-50
2023/01/30 06:26:46;;;;;;;0.57;0.53;;;21.90;40.90;;;;;;5022059;28;83464;-50
2023/01/30 06:29:15;;;;;;;0.50;0.50;;;21.90;41.60;;;;;;5010282;28;83194;-50
2023/01/30 06:31:43;;;;;;;2.13;0.87;;;21.80;40.90;;;;;;5021408;28;83883;-50
2023/01/30 06:34:12;;;;;;;1.27;0.97;;;21.80;40.90;;;;;;5022802;28;81912;-50
2023/01/30 06:36:40;;;;;;;0.63;0.40;;;21.80;41.00;;;;;;5023961;28;82495;-50
2023/01/30 06:39:08;;;;;;;1.30;0.40;;;21.80;41.00;;;;;;5022682;28;84085;-52
2023/01/30 06:41:36;;;;;;;2.10;0.73;;;21.80;41.00;;;;;;5023017;28;82971;-50
2023/01/30 06:44:04;;;;;;;1.00;0.90;;;21.80;41.00;;;;;;5021728;28;82849;-49
2023/01/30 06:46:33;;;;;;;0.80;0.80;;;21.80;41.00;;;;;;5016355;28;83902;-50
2023/01/30 06:49:02;;;;;;;1.73;1.00;;;21.80;41.00;;;;;;5022478;28;84060;-49
2023/01/30 06:51:31;;;;;;;0.53;0.50;;;21.70;40.90;;;;;;5022608;28;83842;-50
2023/01/30 06:53:59;;;;;;;0.80;0.47;;;21.70;40.90;;;;;;5022159;28;81926;-50
2023/01/30 06:56:27;;;;;;;1.30;0.73;;;21.70;41.60;;;;;;5021939;28;82970;-50
2023/01/30 06:58:55;;;;;;;0.80;0.77;;;21.70;40.90;;;;;;5022205;28;84373;-50
2023/01/30 07:01:23;;;;;;;2.20;0.73;;;21.70;41.00;;;;;;5022595;28;82827;-50
2023/01/30 07:03:53;;;;;;;1.40;0.70;;;21.70;40.90;;;;;;5022580;28;82025;-50
2023/01/30 07:06:21;;;;;;;2.63;0.53;;;21.70;40.90;;;;;;5022277;28;82848;-50
2023/01/30 07:08:49;;;;;;;1.60;0.80;;;21.70;40.90;;;;;;5023805;28;84107;-50
2023/01/30 07:11:17;;;;;;;3.53;0.73;;;21.60;40.90;;;;;;5025117;28;82427;-49
2023/01/30 07:13:45;;;;;;;0.80;0.50;;;21.60;40.80;;;;;;5025618;28;81973;-49
2023/01/30 07:16:13;;;;;;;5.33;0.97;;;21.60;40.90;;;;;;5025407;28;82057;-50
2023/01/30 07:18:41;;;;;;;0.77;0.50;;;21.60;40.90;;;;;;5026211;28;82494;-50
2023/01/30 07:21:10;;;;;;;1.03;1.03;;;21.60;40.80;;;;;;5026029;28;81891;-49
2023/01/30 07:23:38;;;;;;;1.37;0.70;;;21.60;40.90;;;;;;5025299;28;81841;-49
2023/01/30 07:26:06;;;;;;;0.50;0.50;;;21.60;40.80;;;;;;5025011;28;82907;-49
2023/01/30 07:28:34;;;;;;;1.87;1.20;;;21.60;40.90;;;;;;5025420;28;83080;-50
2023/01/30 07:31:03;;;;;;;0.67;0.67;;;21.60;40.80;;;;;;5025051;28;82746;-49
2023/01/30 07:33:31;;;;;;;1.00;0.50;;;21.60;40.80;;;;;;5025261;28;82871;-50
2023/01/30 07:35:59;;;;;;;1.37;0.90;;;21.60;40.80;;;;;;5025210;28;82019;-49
2023/01/30 07:38:28;;;;;;;1.63;0.90;;;21.50;40.80;;;;;;5024315;28;83105;-49
2023/01/30 07:40:57;;;;;;;0.73;0.70;;;21.60;40.80;;;;;;5025490;28;82011;-49
2023/01/30 07:43:25;;;;;;;1.90;0.67;;;21.50;40.80;;;;;;5025615;28;81995;-50
2023/01/30 07:45:53;;;;;;;0.63;0.63;;;21.50;40.80;;;;;;5025559;28;84396;-49
2023/01/30 07:48:21;;;;;;;0.87;0.70;;;21.50;40.70;;;;;;5025163;28;83226;-52
2023/01/30 07:50:49;;;;;;;5.60;0.90;;;21.50;40.70;;;;;;5025753;28;81732;-49
2023/01/30 07:53:18;;;;;;;1.93;0.90;;;21.50;40.80;;;;;;5025685;28;81935;-51
2023/01/30 07:55:47;;;;;;;1.57;0.73;;;21.50;40.80;;;;;;5025984;28;83954;-49
2023/01/30 07:58:15;;;;;;;1.90;0.57;;;21.50;40.70;;;;;;5025011;28;82960;-50
2023/01/30 08:00:43;;;;;;;0.63;0.40;;;21.50;40.70;;;;;;5025192;28;85007;-51
2023/01/30 08:03:12;;;;;;;0.60;0.60;;;21.40;40.60;;;;;;5025586;28;82071;-52
2023/01/30 08:05:40;;;;;;;1.63;0.63;;;21.40;40.70;;;;;;5025447;28;82814;-50
2023/01/30 08:08:08;;;;;;;1.30;0.37;;;21.40;41.30;;;;;;5024966;28;84077;-52
2023/01/30 08:10:36;;;;;;;1.03;0.60;;;21.40;40.60;;;;;;5025185;28;84110;-52
2023/01/30 08:13:06;;;;;;;0.83;0.67;;;21.40;40.60;;;;;;5024897;28;81896;-51
2023/01/30 08:15:34;;;;;;;0.73;0.73;;;21.40;40.60;;;;;;5009406;28;83862;-52
2023/01/30 08:18:02;;;;;;;2.83;0.80;;;21.40;40.70;;;;;;5024671;28;83091;-50
2023/01/30 08:20:30;;;;;;;2.70;1.10;;;21.40;40.60;;;;;;5024300;28;82909;-50
2023/01/30 08:22:58;;;;;;;1.80;0.63;;;21.40;40.60;;;;;;5024431;28;82897;-50
2023/01/30 08:25:26;;;;;;;1.40;0.70;;;21.40;40.60;;;;;;5024457;28;82149;-50
2023/01/30 08:27:54;;;;;;;0.93;0.43;;;21.40;40.60;;;;;;5024298;28;83106;-49
2023/01/30 08:30:24;;;;;;;1.13;0.50;;;21.30;40.50;;;;;;5023696;28;83127;-49
2023/01/30 08:32:53;;;;;;;0.87;0.60;;;21.30;41.10;;;;;;5023806;28;82865;-51
2023/01/30 08:35:20;;;;;;;0.90;0.70;;;21.30;40.50;;;;;;5025131;28;82537;-50
2023/01/30 08:37:49;;;;;;;4.03;0.80;;;21.30;40.50;;;;;;5024829;28;84022;-50
2023/01/30 08:40:17;;;;;;;1.97;0.50;;;21.40;40.60;;;;;;5021789;28;82474;-52
2023/01/30 08:42:45;;;;;;;2.17;0.80;;;21.30;40.50;;;;;;5024203;28;81945;-51
2023/01/30 08:45:14;;;;;;;0.90;0.67;;;21.30;40.50;;;;;;5008392;28;82459;-49
2023/01/30 08:47:43;;;;;;;1.60;0.70;;;21.30;40.50;;;;;;5024230;28;84167;-51
2023/01/30 08:50:11;;;;;;;1.73;0.63;;;21.30;40.50;;;;;;5024578;28;84956;-51
2023/01/30 08:52:40;;;;;;;1.30;0.80;;;21.30;40.50;;;;;;5025135;28;82071;-51
2023/01/30 08:55:09;;;;;;;1.07;0.63;;;21.30;40.50;;;;;;5024118;28;82991;-51
2023/01/30 08:57:37;;;;;;;3.60;0.60;;;21.30;40.50;;;;;;5023928;28;83018;-52
2023/01/30 09:00:06;;;;;;;1.63;0.87;;;21.30;40.50;;;;;;5024476;28;82840;-52
2023/01/30 09:02:34;;;;;;;1.33;0.73;;;21.30;40.50;;;;;;5024132;28;82108;-51
2023/01/30 09:05:04;;;;;;;1.43;1.00;;;21.30;40.50;;;;;;5024383;28;81747;-50
2023/01/30 09:07:32;;;;;;;0.63;0.63;;;21.30;40.50;;;;;;5024073;28;84080;-51
2023/01/30 09:10:00;;;;;;;1.57;0.63;;;21.30;40.40;;;;;;5023744;28;83768;-51
2023/01/30 09:12:28;;;;;;;0.77;0.50;;;21.30;40.50;;;;;;5023732;28;83109;-51
2023/01/30 09:14:59;;;;;;;0.60;0.43;;;21.30;40.40;;;;;;5024231;28;82981;-51
2023/01/30 09:17:27;;;;;;;0.97;0.47;;;21.30;40.40;;;;;;5023638;28;83294;-52
2023/01/30 09:19:55;;;;;;;1.17;0.67;;;21.30;41.00;;;;;;5023986;28;82751;-51
2023/01/30 09:22:24;;;;;;;0.40;0.40;;;21.30;40.40;;;;;;5023204;28;81991;-51
2023/01/30 09:24:55;;;;;;;1.00;0.70;;;21.30;40.50;;;;;;5023161;28;82508;-51
2023/01/30 09:27:23;;;;;;;1.23;0.83;;;21.20;40.30;;;;;;5023982;28;81985;-52
2023/01/30 09:29:51;;;;;;;1.57;0.53;;;21.20;40.30;;;;;;5023608;28;82727;-51
2023/01/30 09:32:19;;;;;;;0.90;0.53;;;21.20;40.30;;;;;;5022254;28;82004;-51
2023/01/30 09:34:48;;;;;;;1.23;0.50;;;21.20;40.30;;;;;;5023690;28;82952;-51
2023/01/30 09:37:16;;;;;;;3.30;0.73;;;21.20;40.30;;;;;;5022822;28;84029;-51
2023/01/30 09:39:45;;;;;;;0.63;0.57;;;21.20;41.00;;;;;;5023675;28;84471;-51
2023/01/30 09:42:36;;;;;;;2.20;0.63;;;21.20;40.40;;;;;;5024275;28;82037;-51
2023/01/30 09:45:29;;;;;;;2.23;0.57;;;21.20;40.40;;;;;;5023890;28;82794;-51
2023/01/30 09:48:01;;;;;;;2.33;0.80;;;21.20;40.40;;;;;;5021630;28;82109;-51
2023/01/30 09:50:39;;;;;;;3.33;0.63;;;21.20;40.40;;;;;;5024004;28;83124;-51
2023/01/30 09:53:12;;;;;;;1.57;0.70;;;21.20;40.40;;;;;;5023947;28;82016;-51
2023/01/30 09:55:42;;;;;;;2.27;0.93;;;21.20;40.40;;;;;;5023653;28;82959;-51
2023/01/30 09:58:16;;;;;;;0.90;0.80;;;21.10;41.00;;;;;;5024347;28;82643;-51
2023/01/30 10:00:45;;;;;;;1.23;0.77;;;21.10;40.30;;;;;;5023677;28;83657;-51
2023/01/30 10:03:14;;;;;;;0.50;0.47;;;21.10;40.30;;;;;;5022959;28;82971;-51
2023/01/30 10:05:44;;;;;;;0.67;0.37;;;21.10;40.30;;;;;;5023084;28;83923;-51
2023/01/30 10:08:43;;;;;;;1.60;0.63;;;21.10;40.30;;;;;;5022956;28;83003;-51
2023/01/30 10:11:18;;;;;;;0.73;0.73;;;21.10;40.30;;;;;;5023215;28;83872;-51
2023/01/30 10:13:54;;;;;;;2.67;0.50;;;21.10;40.30;;;;;;5022651;28;81904;-51
2023/01/30 10:16:25;;;;;;;2.20;0.87;;;21.10;40.30;;;;;;5023164;28;82517;-51
2023/01/30 10:19:00;;;;;;;0.50;0.50;;;21.10;40.30;;;;;;5022499;28;83786;-51
2023/01/30 10:21:36;;;;;;;0.37;0.37;;;21.10;40.30;;;;;;5023330;28;83998;-51
2023/01/30 10:24:15;;;;;;;6.97;0.60;;;21.10;40.30;;;;;;5023251;28;82013;-52
2023/01/30 10:26:44;;;;;;;0.93;0.47;;;21.10;40.30;;;;;;5023034;28;82683;-51
2023/01/30 10:29:14;;;;;;;1.93;0.80;;;21.10;40.20;;;;;;5021665;28;82952;-51
2023/01/30 10:31:43;;;;;;;1.37;0.60;;;21.10;40.20;;;;;;5022253;28;83897;-51
2023/01/30 10:34:14;;;;;;;0.63;0.53;;;21.10;40.20;;;;;;5022717;28;82052;-51
2023/01/30 10:36:43;;;;;;;0.67;0.53;;;21.10;40.30;;;;;;5023266;28;83945;-52
2023/01/30 10:39:20;;;;;;;0.50;0.50;;;21.10;40.20;;;;;;5022901;28;82017;-51
2023/01/30 10:41:54;;;;;;;0.40;0.40;;;21.10;40.30;;;;;;5022301;28;82880;-51
2023/01/30 10:44:22;;;;;;;0.67;0.50;;;21.10;40.20;;;;;;5021761;28;81987;-51
2023/01/30 10:47:31;;;;;;;0.50;0.50;;;21.10;40.20;;;;;;5022082;28;82598;-51
2023/01/30 10:50:15;;;;;;;0.40;0.40;;;21.00;40.30;;;;;;5005195;28;82681;-51
2023/01/30 10:52:47;;;;;;;0.63;0.30;;;21.00;40.20;;;;;;5022265;28;84016;-52
2023/01/30 10:55:27;;;;;;;1.27;0.77;;;21.00;40.20;;;;;;5021266;28;83098;-51
2023/01/30 10:58:09;;;;;;;1.37;0.60;;;21.00;40.90;;;;;;5022687;28;82826;-51
2023/01/30 11:00:39;;;;;;;1.10;0.80;;;21.00;40.20;;;;;;5021884;28;84030;-51
2023/01/30 11:03:16;;;;;;;0.87;0.40;;;21.00;40.20;;;;;;5021892;28;83501;-51
2023/01/30 11:05:47;;;;;;;2.73;0.93;;;21.00;40.30;;;;;;5021989;28;81912;-51
2023/01/30 11:08:22;;;;;;;2.30;0.77;;;21.00;40.20;;;;;;5022851;28;82780;-51
2023/01/30 11:10:51;;;;;;;0.97;0.87;;;21.00;40.90;;;;;;5020774;28;83609;-51
2023/01/30 11:13:23;;;;;;;1.07;0.73;;;21.00;40.30;;;;;;5022222;28;82854;-51
2023/01/30 11:15:52;;;;;;;1.20;0.70;;;21.00;40.20;;;;;;5021997;28;82017;-51
2023/01/30 11:18:20;;;;;;;0.47;0.47;;;21.00;40.20;;;;;;5022496;28;82747;-51
2023/01/30 11:21:10;;;;;;;2.27;0.67;;;21.00;40.20;;;;;;5020517;28;82824;-51
2023/01/30 11:23:40;;;;;;;1.03;0.97;;;20.90;40.10;;;;;;5021989;28;84782;-51
2023/01/30 11:26:15;;;;;;;1.30;0.73;;;20.90;40.10;;;;;;5021985;28;82131;-51
2023/01/30 11:28:46;;;;;;;0.80;0.40;;;21.00;40.20;;;;;;5022139;28;81951;-52
2023/01/30 11:31:18;;;;;;;1.53;0.90;;;21.00;40.20;;;;;;5021653;28;84107;-51
2023/01/30 11:34:03;;;;;;;4.77;0.77;;;20.90;40.10;;;;;;5021420;28;83782;-51
2023/01/30 11:36:31;;;;;;;3.77;1.10;;;20.90;40.10;;;;;;5021881;28;82006;-51
2023/01/30 11:39:01;;;;;;;1.03;0.47;;;20.90;40.10;;;;;;5022416;28;82776;-51
2023/01/30 11:41:30;;;;;;;2.07;0.73;;;20.90;40.10;;;;;;5022291;28;83079;-52
2023/01/30 11:44:03;;;;;;;0.43;0.43;;;20.90;40.10;;;;;;5022735;28;82641;-51
2023/01/30 11:46:34;;;;;;;4.67;1.10;;;21.00;40.20;;;;;;5021915;28;82928;-51
2023/01/30 11:49:03;;;;;;;1.20;0.93;;;21.00;40.10;;;;;;5021837;28;82983;-51
2023/01/30 11:51:52;;;;;;;0.93;0.77;;;21.10;40.10;;;;;;5001601;28;82614;-51
2023/01/30 11:54:22;;;;;;;0.70;0.67;;;21.10;40.00;;;;;;5001685;28;83878;-51
2023/01/30 11:56:52;;;;;;;1.83;0.77;;;21.30;40.10;;;;;;5005182;28;82090;-52
2023/01/30 11:59:24;;;;;;;1.23;0.50;;;21.40;40.00;;;;;;5005222;28;82833;-51
2023/01/30 12:01:53;;;;;;;0.83;0.67;;;21.60;40.00;;;;;;5021935;28;83130;-51
2023/01/30 12:04:21;;;;;;;2.67;1.07;;;21.70;39.80;;;;;;5025708;28;81675;-52
2023/01/30 12:06:49;;;;;;;1.90;0.77;;;21.90;39.70;;;;;;5021038;28;81987;-51
2023/01/30 12:09:31;;;;;;;1.57;1.00;;;22.20;39.70;;;;;;5023250;28;82835;-51
2023/01/30 12:11:59;;;;;;;0.83;0.63;;;22.40;39.70;;;;;;5024539;28;85197;-51
2023/01/30 12:14:35;;;;;;;0.83;0.40;;;22.60;39.50;;;;;;5025332;28;83780;-49
2023/01/30 12:17:07;;;;;;;2.23;0.70;;;22.80;39.40;;;;;;5024937;28;82047;-50
2023/01/30 12:19:46;;;;;;;1.80;0.83;;;23.00;39.40;;;;;;5024119;28;83141;-50
2023/01/30 12:22:20;;;;;;;1.17;0.70;;;23.20;39.30;;;;;;5025026;28;84244;-51
2023/01/30 12:24:52;;;;;;;4.57;1.10;;;23.30;39.20;;;;;;5024623;28;82790;-51
2023/01/30 12:27:23;;;;;;;0.63;0.60;;;23.50;39.10;;;;;;5025085;28;81990;-49
2023/01/30 12:29:57;;;;;;;1.93;1.17;;;23.60;39.10;;;;;;5024775;28;83869;-49
2023/01/30 12:32:26;;;;;;;0.30;0.30;;;23.80;39.10;;;;;;5024840;28;84134;-52
2023/01/30 12:34:55;;;;;;;2.07;0.90;;;23.90;38.90;;;;;;5025524;28;82990;-50
2023/01/30 12:37:36;;;;;;;2.60;0.60;;;24.00;38.80;;;;;;5024015;28;82927;-49
2023/01/30 12:40:07;;;;;;;1.33;0.50;;;24.10;38.80;;;;;;5023799;28;82664;-50
2023/01/30 12:43:15;;;;;;;1.13;0.60;;;24.30;38.80;;;;;;5024038;28;83987;-49
2023/01/30 12:45:47;;;;;;;2.37;0.60;;;24.40;38.70;;;;;;4962786;28;81988;-49
2023/01/30 12:48:29;;;;;;;1.27;0.80;;;24.50;38.60;;;;;;4963068;28;82105;-51
2023/01/30 12:51:04;;;;;;;0.67;0.47;;;24.60;38.60;;;;;;4988332;28;82848;-49
2023/01/30 12:53:36;;;;;;;1.53;0.90;;;24.80;38.60;;;;;;5004534;28;82929;-50
2023/01/30 12:56:32;;;;;;;1.47;0.60;;;24.90;38.50;;;;;;5004839;28;83920;-50
2023/01/30 12:59:02;;;;;;;2.87;0.70;;;24.90;38.40;;;;;;5021524;28;82012;-50
2023/01/30 13:01:35;;;;;;;3.33;0.70;;;25.10;38.40;;;;;;5023464;28;83003;-50
2023/01/30 13:04:06;;;;;;;2.40;1.13;;;25.10;38.30;;;;;;5022215;28;84340;-50
2023/01/30 13:06:55;;;;;;;1.20;0.90;;;25.20;38.20;;;;;;5022915;28;84751;-50
2023/01/30 13:09:42;;;;;;;4.17;1.20;;;25.30;38.20;;;;;;5023086;28;81951;-50
2023/01/30 13:12:13;;;;;;;1.03;0.77;;;25.40;38.10;;;;;;5024443;28;82849;-50